Terminal Aerodrome Forecast
Issued by NWS

Home | Current Version | Previous Version | Text Only | Print | Product List | Glossary On
Versions: 1 2 3 4 5 6 7 8 9 10 11 12 13 14 15 16
000
FTUS43 KMQT 260300 AAA
TAFCMX
TAF AMD
KCMX 260302Z 2603/2624 25008KT P6SM OVC025
     FM260500 26005KT P6SM VCSH OVC015
     FM260900 30004KT 6SM -SN OVC015
     FM261400 35003KT 5SM -SN OVC010=

USA.gov is the U.S. government's official web portal to all federal, state and local government web resources and services.